Latest Coastal Weather Observations for Eucla

IDS60701

Issued at 9:31 pm CST Friday 29 July 2016 (issued every 10 minutes, with the page automatically refreshed every 10 minutes)

About coastal observations | Map of coastal stations | Coastal observations for SA | Marine services | Other Formats
Station Details ID: 011003 Name: EUCLA Lat: -31.68 Lon: 128.90 Height: 93.1 m
Data from the previous 72 hours. | See also: Recent months at Eucla
Date/Time
CST
Temp
°C
Wind Pressure Rain since
9am
mm
Weather Cloud Vis
km
Sea
Height
m
Swell
Dir  Spd
kts
Gust
kts
hPa Trend Height
m
Period
s
Dir
29/09:30pm 16.6 N 7 8 1016.8 - 0.0 - - - - - - -
29/09:00pm 15.9 N 7 8 1016.8 - 0.0 - - - - - - -
29/08:30pm 15.6 N 6 8 1016.9 - 0.0 - - - - - - -
29/08:00pm 16.0 N 7 7 1016.6 - 0.0 - - - - - - -
29/07:30pm 16.0 NNE 6 7 1016.6 - 0.0 - - - - - - -
29/07:00pm 17.3 ENE 5 6 1016.4 - 0.0 - - - - - - -
29/06:30pm 17.9 E 4 5 1016.2 - 0.0 - - - - - - -
29/06:00pm 19.1 SE 5 6 1016.6 - 0.0 - - - - - - -
29/05:30pm 20.3 NNW 5 6 1016.6 - 0.0 - - - - - - -
29/05:00pm 24.4 NNW 7 10 1016.8 - 0.0 - - - - - - -
29/04:30pm 25.7 NW 10 16 1016.8 - 0.0 Fine Partly cloudy 40 - - - -
29/04:00pm 25.3 NW 10 15 1017.2 - 0.0 - - - - - - -
29/03:30pm 25.3 NW 11 16 1017.2 - 0.0 - - - - - - -
29/03:00pm 25.8 NNW 8 14 1017.6 - 0.0 - - - - - - -
29/02:30pm 25.9 NW 9 16 1018.0 - 0.0 - - - - - - -
29/02:00pm 24.7 NW 9 14 1018.6 - 0.0 - - - - - - -
29/01:30pm 24.8 NW 9 15 1019.1 - 0.0 - - - - - - -
29/01:00pm 24.7 NNW 9 14 1019.7 - 0.0 - - - - - - -
29/12:30pm 23.6 NNW 7 11 1020.3 - 0.0 - - - - - - -
29/12:00pm 23.2 NNW 8 13 1020.9 - 0.0 - - - - - - -
29/11:30am 21.3 NNW 8 9 1021.4 - 0.0 - - - - - - -
29/11:00am 19.5 NNW 8 11 1021.8 - 0.0 - - - - - - -
29/10:30am 17.7 N 9 11 1021.9 - 0.0 Fine Mostly cloudy 40 - - - -
29/10:00am 15.9 N 7 10 1021.9 - 0.0 - - - - - - -
29/09:30am 14.6 NNW 7 10 1022.0 - 0.0 - - - - - - -
29/09:00am 11.7 N 7 9 1021.8 - 0.0 - - - - - - -
29/08:30am 9.3 N 8 10 1022.0 - 0.0 - - - - - - -
29/08:00am 8.3 N 7 9 1022.0 - 0.0 - - - - - - -
29/07:30am 8.5 N 8 9 1021.7 - 0.0 - - - - - - -
29/07:00am 8.8 N 8 11 1021.4 - 0.0 - - - - - - -
29/06:30am 9.0 N 8 9 1021.3 - 0.0 - - - - - - -
29/06:00am 9.4 N 8 10 1021.5 - 0.0 - - - - - - -
29/05:30am 8.7 N 7 8 1021.7 - 0.0 - - - - - - -
29/05:00am 8.8 N 6 7 1021.7 - 0.0 - - - - - - -
29/04:30am 9.7 N 7 8 1021.7 - 0.0 - - - - - - -
29/04:00am 10.3 N 7 8 1021.9 - 0.0 - - - - - - -
29/03:30am 10.6 N 6 8 1021.9 - 0.0 - - - - - - -
29/03:00am 11.0 N 7 9 1022.1 - 0.0 - - - - - - -
29/02:30am 11.3 N 8 10 1022.4 - 0.0 - - - - - - -
29/02:00am 10.9 N 8 13 1022.6 - 0.0 - - - - - - -
29/01:30am 9.8 N 7 9 1022.6 - 0.0 - - - - - - -
29/01:00am 9.9 NNE 7 8 1022.8 - 0.0 - - - - - - -
29/12:30am 9.8 NNE 6 7 1023.1 - 0.0 - - - - - - -
29/12:00am 9.7 NNE 7 8 1023.2 - 0.0 - - - - - - -
 
Date/Time
CST
Temp
°C
Wind Pressure Rain since
9am
mm
Weather Cloud Vis
km
Sea
Height
m
Swell
Dir  Spd
kts
Gust
kts
hPa Trend Height
m
Period
s
Dir
28/11:30pm 9.9 NNE 6 7 1023.5 - 0.0 - - - - - - -
28/11:00pm 10.3 NNE 7 8 1023.8 - 0.0 - - - - - - -
28/10:30pm 10.5 NNE 7 9 1023.9 - 0.0 - - - - - - -
28/10:00pm 10.5 NE 6 8 1024.1 - 0.0 - - - - - - -
28/09:30pm 11.2 NE 6 8 1024.0 - 0.0 - - - - - - -
28/09:00pm 11.5 NE 7 10 1024.2 - 0.0 - - - - - - -
28/08:30pm 12.0 ENE 7 8 1024.2 - 0.0 - - - - - - -
28/08:00pm 12.5 ENE 6 9 1024.3 - 0.0 - - - - - - -
28/07:30pm 12.6 ENE 6 9 1024.5 - 0.0 - - - - - - -
28/07:00pm 13.2 ENE 7 9 1024.3 - 0.0 - - - - - - -
28/06:30pm 13.8 E 7 10 1024.1 - 0.0 - - - - - - -
28/06:00pm 15.0 ESE 7 9 1024.2 - 0.0 - - - - - - -
28/05:30pm 16.1 ESE 5 8 1023.8 - 0.0 - - - - - - -
28/05:00pm 17.0 SSW 4 7 1024.0 - 0.0 - - - - - - -
28/04:30pm 20.2 NNW 8 11 1024.1 - 0.0 Haze Mostly clear 25 - - - -
28/04:00pm 20.3 N 7 10 1023.8 - 0.0 - - - - - - -
28/03:30pm 20.6 N 7 11 1024.4 - 0.0 - - - - - - -
28/03:00pm 19.8 NW 7 11 1024.8 - 0.0 - - - - - - -
28/02:30pm 20.4 N 8 12 1025.5 - 0.0 - - - - - - -
28/02:00pm 20.0 N 8 14 1025.7 - 0.0 - - - - - - -
28/01:30pm 19.3 N 9 14 1026.4 - 0.0 - - - - - - -
28/01:00pm 18.8 N 10 15 1026.8 - 0.0 - - - - - - -
28/12:30pm 18.0 N 8 14 1027.5 - 0.0 - - - - - - -
28/12:00pm 16.6 N 8 15 1027.9 - 0.0 - - - - - - -
28/11:30am 15.5 N 10 14 1028.1 - 0.0 - - - - - - -
28/11:00am 14.5 N 9 14 1028.4 - 0.0 - - - - - - -
28/10:30am 12.9 N 7 9 1028.5 - 0.0 Fine Partly cloudy 40 - - - -
28/10:00am 11.4 N 9 12 1028.3 - 0.0 - - - - - - -
28/09:30am 9.0 N 10 14 1028.7 - 0.0 - - - - - - -
28/09:00am 6.0 N 8 10 1029.1 - 0.0 - - - - - - -
28/08:30am 5.0 N 7 9 1028.7 - 0.0 - - - - - - -
28/08:00am 4.8 N 8 9 1028.7 - 0.0 - - - - - - -
28/07:30am 5.1 N 8 10 1028.8 - 0.0 - - - - - - -
28/07:00am 5.1 N 8 10 1028.5 - 0.0 - - - - - - -
28/06:30am 5.0 N 8 9 1028.2 - 0.0 - - - - - - -
28/06:00am 5.1 N 8 10 1028.4 - 0.0 - - - - - - -
28/05:30am 5.5 N 9 10 1028.2 - 0.0 - - - - - - -
28/05:00am 5.8 N 8 10 1028.5 - 0.0 - - - - - - -
28/04:30am 5.9 N 8 10 1028.2 - 0.0 - - - - - - -
28/04:00am 6.3 NNE 8 12 1027.9 - 0.0 - - - - - - -
28/03:30am 5.9 N 8 11 1028.1 - 0.0 - - - - - - -
28/03:00am 5.5 N 8 9 1028.3 - 0.0 - - - - - - -
28/02:30am 5.7 NNE 7 8 1028.6 - 0.0 - - - - - - -
28/02:00am 6.5 NNE 6 8 1028.3 - 0.0 - - - - - - -
28/01:30am 6.0 NNE 6 7 1028.4 - 0.0 - - - - - - -
28/01:00am 5.8 N 6 6 1028.9 - 0.0 - - - - - - -
28/12:30am 6.7 NNE 6 7 1028.9 - 0.0 - - - - - - -
28/12:00am 7.1 NNE 5 7 1029.2 - 0.0 - - - - - - -
 
Date/Time
CST
Temp
°C
Wind Pressure Rain since
9am
mm
Weather Cloud Vis
km
Sea
Height
m
Swell
Dir  Spd
kts
Gust
kts
hPa Trend Height
m
Period
s
Dir
27/11:30pm 8.1 NE 6 7 1028.9 - 0.0 - - - - - - -
27/11:00pm 8.4 ENE 6 6 1028.9 - 0.0 - - - - - - -
27/10:30pm 8.9 ENE 5 7 1029.2 - 0.0 - - - - - - -
27/10:00pm 9.0 E 6 6 1029.4 - 0.0 - - - - - - -
27/09:30pm 9.5 E 5 6 1029.5 - 0.0 - - - - - - -
27/09:00pm 10.0 ESE 5 5 1029.6 - 0.0 - - - - - - -
27/08:30pm 10.6 ESE 5 6 1029.5 - 0.0 - - - - - - -
27/08:00pm 10.6 SE 5 5 1029.5 - 0.0 - - - - - - -
27/07:30pm 11.0 SE 5 5 1029.2 - 0.0 - - - - - - -
27/07:00pm 11.2 ESE 5 5 1028.6 - 0.0 - - - - - - -
27/06:30pm 11.8 ESE 5 5 1028.1 - 0.0 - - - - - - -
27/06:00pm 12.7 ESE 5 7 1027.9 - 0.0 - - - - - - -
27/05:30pm 13.7 ESE 6 8 1027.8 - 0.0 - - - - - - -
27/05:00pm 14.3 ESE 6 8 1027.6 - 0.0 - - - - - - -
27/04:30pm 14.9 SE 6 9 1027.6 - 0.0 Haze Clear 25 - - - -
27/04:00pm 15.1 SE 7 11 1027.7 - 0.0 - - - - - - -
27/03:30pm 15.4 SE 7 10 1027.7 - 0.0 - - - - - - -
27/03:00pm 15.1 SE 7 10 1027.9 - 0.0 - - - - - - -
27/02:30pm 16.2 SSE 7 9 1028.0 - 0.0 - - - - - - -
27/02:00pm 16.0 SSE 7 9 1028.4 - 0.0 - - - - - - -
27/01:30pm 16.0 SSE 7 9 1028.7 - 0.0 - - - - - - -
27/01:00pm 16.0 SSE 7 14 1029.2 - 0.0 - - - - - - -
27/12:30pm 15.9 S 6 9 1029.6 - 0.0 - - - - - - -
27/12:00pm 15.4 S 5 7 1029.8 - 0.0 - - - - - - -
27/11:30am 15.3 W 5 7 1029.9 - 0.0 - - - - - - -
27/11:00am 14.8 WSW 6 8 1030.0 - 0.0 - - - - - - -
27/10:30am 14.1 W 5 6 1029.6 - 0.0 Haze Mostly cloudy 25 - - - -
27/10:00am 13.1 WSW 5 7 1029.3 - 0.0 - - - - - - -
27/09:30am 12.4 W 5 7 1028.9 - 0.0 - - - - - - -
27/09:00am 11.6 W 4 5 1028.7 - 0.0 - - - - - - -
27/08:30am 11.3 WNW 5 6 1028.1 - 0.0 - - - - - - -
27/08:00am 11.1 W 5 7 1028.0 - 0.0 - - - - - - -
27/07:30am 10.9 W 6 9 1027.8 - 0.0 - - - - - - -
27/07:00am 10.8 WNW 6 8 1027.5 - 0.0 - - - - - - -
27/06:30am 10.5 WNW 5 8 1027.2 - 0.0 - - - - - - -
27/06:00am 11.6 WNW 4 4 1026.8 - 0.0 - - - - - - -
27/05:30am 11.7 W 7 10 1026.4 - 0.0 - - - - - - -
27/05:00am 11.7 WSW 5 8 1026.2 - 0.0 - - - - - - -
27/04:30am 11.3 WSW 6 8 1026.1 - 0.0 - - - - - - -
27/04:00am 11.3 WSW 4 6 1026.0 - 0.0 - - - - - - -
27/03:30am 11.3 WSW 6 8 1025.9 - 0.0 - - - - - - -
27/03:00am 11.1 WSW 6 9 1026.0 - 0.0 - - - - - - -
27/02:30am 10.8 WSW 7 9 1026.1 - 0.0 - - - - - - -
27/02:00am 10.9 WSW 7 10 1026.1 - 0.0 - - - - - - -
27/01:30am 11.2 WSW 7 10 1026.1 - 0.0 - - - - - - -
27/01:00am 11.2 WSW 7 10 1026.2 - 0.0 - - - - - - -
27/12:30am 11.7 WSW 7 10 1026.3 - 0.0 - - - - - - -
27/12:00am 12.0 WSW 7 10 1026.3 - 0.0 - - - - - - -
 
Date/Time
CST
Temp
°C
Wind Pressure Rain since
9am
mm
Weather Cloud Vis
km
Sea
Height
m
Swell
Dir  Spd
kts
Gust
kts
hPa Trend Height
m
Period
s
Dir
26/11:30pm 12.0 WSW 8 11 1026.1 - 0.0 - - - - - - -

Other Formats:

Comma delimited format used in spreadsheet applications
http://www.bom.gov.au/fwo/IDS60701/IDS60701.94647.axf

JavaScript Object Notation format (JSON) in row-major order
http://www.bom.gov.au/fwo/IDS60701/IDS60701.94647.json